sensor_id;sensor_type;location;lat;lon;timestamp;P1;durP1;ratioP1;P2;durP2;ratioP2
10013;SDS011;45684;48.358;10.746;2023-04-03T00:01:11;4.80;;;4.40;;
10013;SDS011;45684;48.358;10.746;2023-04-03T00:03:39;5.07;;;4.50;;
10013;SDS011;45684;48.358;10.746;2023-04-03T00:06:07;4.90;;;4.27;;
10013;SDS011;45684;48.358;10.746;2023-04-03T00:08:37;4.40;;;4.10;;
10013;SDS011;45684;48.358;10.746;2023-04-03T00:11:06;4.63;;;4.23;;
10013;SDS011;45684;48.358;10.746;2023-04-03T00:13:34;4.77;;;4.37;;
10013;SDS011;45684;48.358;10.746;2023-04-03T00:16:04;4.50;;;4.10;;
10013;SDS011;45684;48.358;10.746;2023-04-03T00:18:33;4.60;;;4.20;;
10013;SDS011;45684;48.358;10.746;2023-04-03T00:21:02;4.70;;;4.30;;
10013;SDS011;45684;48.358;10.746;2023-04-03T00:23:30;4.60;;;4.20;;
10013;SDS011;45684;48.358;10.746;2023-04-03T00:25:58;4.53;;;4.13;;
10013;SDS011;45684;48.358;10.746;2023-04-03T00:28:25;4.20;;;3.90;;
10013;SDS011;45684;48.358;10.746;2023-04-03T00:30:54;5.07;;;3.93;;
10013;SDS011;45684;48.358;10.746;2023-04-03T00:33:23;3.90;;;3.60;;
10013;SDS011;45684;48.358;10.746;2023-04-03T00:35:51;3.73;;;3.43;;
10013;SDS011;45684;48.358;10.746;2023-04-03T00:38:19;4.17;;;3.80;;
10013;SDS011;45684;48.358;10.746;2023-04-03T00:40:47;3.73;;;3.43;;
10013;SDS011;45684;48.358;10.746;2023-04-03T00:43:17;3.93;;;3.57;;
10013;SDS011;45684;48.358;10.746;2023-04-03T00:45:47;3.67;;;3.37;;
10013;SDS011;45684;48.358;10.746;2023-04-03T00:48:17;4.07;;;3.77;;
10013;SDS011;45684;48.358;10.746;2023-04-03T00:50:49;3.77;;;3.47;;
10013;SDS011;45684;48.358;10.746;2023-04-03T00:53:18;4.30;;;3.90;;
10013;SDS011;45684;48.358;10.746;2023-04-03T00:55:50;4.00;;;3.70;;
10013;SDS011;45684;48.358;10.746;2023-04-03T00:58:22;4.70;;;3.37;;
10013;SDS011;45684;48.358;10.746;2023-04-03T01:00:56;3.97;;;3.57;;
10013;SDS011;45684;48.358;10.746;2023-04-03T01:03:26;3.80;;;3.50;;
10013;SDS011;45684;48.358;10.746;2023-04-03T01:05:55;3.30;;;3.10;;
10013;SDS011;45684;48.358;10.746;2023-04-03T01:08:23;3.70;;;3.40;;
10013;SDS011;45684;48.358;10.746;2023-04-03T01:10:51;3.77;;;3.47;;
10013;SDS011;45684;48.358;10.746;2023-04-03T01:13:22;3.90;;;3.60;;
10013;SDS011;45684;48.358;10.746;2023-04-03T01:15:52;3.80;;;3.50;;
10013;SDS011;45684;48.358;10.746;2023-04-03T01:18:21;4.00;;;3.70;;
10013;SDS011;45684;48.358;10.746;2023-04-03T01:23:48;4.47;;;4.07;;
10013;SDS011;45684;48.358;10.746;2023-04-03T01:26:23;4.00;;;3.60;;
10013;SDS011;45684;48.358;10.746;2023-04-03T01:28:52;3.80;;;3.50;;
10013;SDS011;45684;48.358;10.746;2023-04-03T01:31:22;4.13;;;3.60;;
10013;SDS011;45684;48.358;10.746;2023-04-03T01:33:55;3.43;;;3.13;;
10013;SDS011;45684;48.358;10.746;2023-04-03T01:36:24;3.70;;;3.40;;
10013;SDS011;45684;48.358;10.746;2023-04-03T01:38:53;3.57;;;3.27;;
10013;SDS011;45684;48.358;10.746;2023-04-03T01:41:22;3.37;;;3.17;;
10013;SDS011;45684;48.358;10.746;2023-04-03T01:43:55;3.33;;;3.13;;
10013;SDS011;45684;48.358;10.746;2023-04-03T01:46:23;4.27;;;3.33;;
10013;SDS011;45684;48.358;10.746;2023-04-03T01:48:51;3.90;;;3.50;;
10013;SDS011;45684;48.358;10.746;2023-04-03T01:51:21;4.40;;;4.10;;
10013;SDS011;45684;48.358;10.746;2023-04-03T01:53:49;3.80;;;3.40;;
10013;SDS011;45684;48.358;10.746;2023-04-03T01:56:17;3.37;;;3.13;;
10013;SDS011;45684;48.358;10.746;2023-04-03T01:58:47;3.17;;;2.87;;
10013;SDS011;45684;48.358;10.746;2023-04-03T02:01:16;4.00;;;3.20;;
10013;SDS011;45684;48.358;10.746;2023-04-03T02:03:43;2.90;;;2.70;;
10013;SDS011;45684;48.358;10.746;2023-04-03T02:06:11;3.07;;;2.77;;
10013;SDS011;45684;48.358;10.746;2023-04-03T02:08:41;2.90;;;2.70;;
10013;SDS011;45684;48.358;10.746;2023-04-03T02:11:09;3.03;;;2.83;;
10013;SDS011;45684;48.358;10.746;2023-04-03T02:13:37;2.70;;;2.50;;
10013;SDS011;45684;48.358;10.746;2023-04-03T02:16:08;2.90;;;2.70;;
10013;SDS011;45684;48.358;10.746;2023-04-03T02:18:37;2.57;;;2.37;;
10013;SDS011;45684;48.358;10.746;2023-04-03T02:21:05;3.03;;;2.77;;
10013;SDS011;45684;48.358;10.746;2023-04-03T02:23:33;3.00;;;2.80;;
10013;SDS011;45684;48.358;10.746;2023-04-03T02:26:04;2.73;;;2.53;;
10013;SDS011;45684;48.358;10.746;2023-04-03T02:28:34;2.90;;;2.70;;
10013;SDS011;45684;48.358;10.746;2023-04-03T02:31:03;2.83;;;2.63;;
10013;SDS011;45684;48.358;10.746;2023-04-03T02:33:33;2.70;;;2.50;;
10013;SDS011;45684;48.358;10.746;2023-04-03T02:36:06;2.70;;;2.50;;
10013;SDS011;45684;48.358;10.746;2023-04-03T02:38:36;2.97;;;2.77;;
10013;SDS011;45684;48.358;10.746;2023-04-03T02:41:06;2.80;;;2.60;;
10013;SDS011;45684;48.358;10.746;2023-04-03T02:43:36;2.93;;;2.73;;
10013;SDS011;45684;48.358;10.746;2023-04-03T02:46:05;3.00;;;2.70;;
10013;SDS011;45684;48.358;10.746;2023-04-03T02:48:34;3.00;;;2.80;;
10013;SDS011;45684;48.358;10.746;2023-04-03T02:51:02;2.90;;;2.70;;
10013;SDS011;45684;48.358;10.746;2023-04-03T02:53:30;2.80;;;2.60;;
10013;SDS011;45684;48.358;10.746;2023-04-03T02:56:06;2.93;;;2.73;;
10013;SDS011;45684;48.358;10.746;2023-04-03T02:58:34;2.73;;;2.53;;
10013;SDS011;45684;48.358;10.746;2023-04-03T03:01:04;3.13;;;2.53;;
10013;SDS011;45684;48.358;10.746;2023-04-03T03:03:32;3.10;;;2.90;;
10013;SDS011;45684;48.358;10.746;2023-04-03T03:06:00;3.50;;;2.83;;
10013;SDS011;45684;48.358;10.746;2023-04-03T03:08:30;2.83;;;2.63;;
10013;SDS011;45684;48.358;10.746;2023-04-03T03:10:58;3.20;;;3.00;;
10013;SDS011;45684;48.358;10.746;2023-04-03T03:13:28;2.80;;;2.60;;
10013;SDS011;45684;48.358;10.746;2023-04-03T03:15:56;2.80;;;2.60;;
10013;SDS011;45684;48.358;10.746;2023-04-03T03:18:24;2.83;;;2.60;;
10013;SDS011;45684;48.358;10.746;2023-04-03T03:20:53;2.97;;;2.73;;
10013;SDS011;45684;48.358;10.746;2023-04-03T03:23:22;3.17;;;2.87;;
10013;SDS011;45684;48.358;10.746;2023-04-03T03:25:54;3.30;;;3.00;;
10013;SDS011;45684;48.358;10.746;2023-04-03T03:28:22;3.47;;;2.90;;
10013;SDS011;45684;48.358;10.746;2023-04-03T03:30:52;3.23;;;2.73;;
10013;SDS011;45684;48.358;10.746;2023-04-03T03:33:21;2.70;;;2.50;;
10013;SDS011;45684;48.358;10.746;2023-04-03T03:35:49;2.97;;;2.77;;
10013;SDS011;45684;48.358;10.746;2023-04-03T03:38:17;3.40;;;3.10;;
10013;SDS011;45684;48.358;10.746;2023-04-03T03:40:46;3.20;;;2.90;;
10013;SDS011;45684;48.358;10.746;2023-04-03T03:43:16;4.27;;;3.10;;
10013;SDS011;45684;48.358;10.746;2023-04-03T03:45:46;3.40;;;3.20;;
10013;SDS011;45684;48.358;10.746;2023-04-03T03:48:19;3.00;;;2.80;;
10013;SDS011;45684;48.358;10.746;2023-04-03T03:50:47;5.03;;;3.30;;
10013;SDS011;45684;48.358;10.746;2023-04-03T03:53:18;3.90;;;3.40;;
10013;SDS011;45684;48.358;10.746;2023-04-03T03:55:49;4.23;;;2.90;;
10013;SDS011;45684;48.358;10.746;2023-04-03T03:58:19;3.30;;;3.10;;
10013;SDS011;45684;48.358;10.746;2023-04-03T04:00:47;3.13;;;2.80;;
10013;SDS011;45684;48.358;10.746;2023-04-03T04:03:15;3.53;;;3.07;;
10013;SDS011;45684;48.358;10.746;2023-04-03T04:05:47;3.33;;;3.13;;
10013;SDS011;45684;48.358;10.746;2023-04-03T04:08:15;3.27;;;3.07;;
10013;SDS011;45684;48.358;10.746;2023-04-03T04:10:44;5.03;;;2.97;;
10013;SDS011;45684;48.358;10.746;2023-04-03T04:13:14;3.47;;;3.17;;
10013;SDS011;45684;48.358;10.746;2023-04-03T04:15:44;3.20;;;2.97;;
10013;SDS011;45684;48.358;10.746;2023-04-03T04:18:13;3.10;;;2.90;;
10013;SDS011;45684;48.358;10.746;2023-04-03T04:20:44;3.17;;;2.97;;
10013;SDS011;45684;48.358;10.746;2023-04-03T04:23:15;3.37;;;3.07;;
10013;SDS011;45684;48.358;10.746;2023-04-03T04:25:44;3.93;;;3.30;;
10013;SDS011;45684;48.358;10.746;2023-04-03T04:28:12;3.60;;;3.17;;
10013;SDS011;45684;48.358;10.746;2023-04-03T04:30:40;6.00;;;3.60;;
10013;SDS011;45684;48.358;10.746;2023-04-03T04:33:08;3.30;;;3.00;;
10013;SDS011;45684;48.358;10.746;2023-04-03T04:35:37;3.10;;;2.90;;
10013;SDS011;45684;48.358;10.746;2023-04-03T04:38:06;3.43;;;3.20;;
10013;SDS011;45684;48.358;10.746;2023-04-03T04:40:36;3.53;;;3.20;;
10013;SDS011;45684;48.358;10.746;2023-04-03T04:43:05;3.47;;;3.17;;
10013;SDS011;45684;48.358;10.746;2023-04-03T04:45:34;4.20;;;3.20;;
10013;SDS011;45684;48.358;10.746;2023-04-03T04:48:02;3.50;;;3.20;;
10013;SDS011;45684;48.358;10.746;2023-04-03T04:50:31;4.00;;;3.10;;
10013;SDS011;45684;48.358;10.746;2023-04-03T04:52:58;3.70;;;3.33;;
10013;SDS011;45684;48.358;10.746;2023-04-03T04:55:26;3.63;;;3.33;;
10013;SDS011;45684;48.358;10.746;2023-04-03T04:57:56;3.47;;;3.17;;
10013;SDS011;45684;48.358;10.746;2023-04-03T05:00:24;3.33;;;3.13;;
10013;SDS011;45684;48.358;10.746;2023-04-03T05:02:53;3.73;;;3.33;;
10013;SDS011;45684;48.358;10.746;2023-04-03T05:05:21;3.30;;;3.10;;
10013;SDS011;45684;48.358;10.746;2023-04-03T05:07:50;3.53;;;3.23;;
10013;SDS011;45684;48.358;10.746;2023-04-03T05:10:17;3.77;;;3.47;;
10013;SDS011;45684;48.358;10.746;2023-04-03T05:12:45;3.13;;;2.90;;
10013;SDS011;45684;48.358;10.746;2023-04-03T05:15:15;3.77;;;3.47;;
10013;SDS011;45684;48.358;10.746;2023-04-03T05:17:43;3.00;;;2.80;;
10013;SDS011;45684;48.358;10.746;2023-04-03T05:20:13;3.40;;;3.10;;
10013;SDS011;45684;48.358;10.746;2023-04-03T05:22:43;3.20;;;2.90;;
10013;SDS011;45684;48.358;10.746;2023-04-03T05:25:12;3.47;;;3.17;;
10013;SDS011;45684;48.358;10.746;2023-04-03T05:27:43;3.23;;;3.00;;
10013;SDS011;45684;48.358;10.746;2023-04-03T05:30:11;3.63;;;3.33;;
10013;SDS011;45684;48.358;10.746;2023-04-03T05:32:42;3.20;;;3.00;;
10013;SDS011;45684;48.358;10.746;2023-04-03T05:35:29;3.23;;;3.03;;
10013;SDS011;45684;48.358;10.746;2023-04-03T05:38:04;4.13;;;3.27;;
10013;SDS011;45684;48.358;10.746;2023-04-03T05:40:32;3.70;;;3.37;;
10013;SDS011;45684;48.358;10.746;2023-04-03T05:43:00;3.60;;;3.30;;
10013;SDS011;45684;48.358;10.746;2023-04-03T05:45:32;2.83;;;2.63;;
10013;SDS011;45684;48.358;10.746;2023-04-03T05:48:02;5.00;;;3.23;;
10013;SDS011;45684;48.358;10.746;2023-04-03T05:50:31;3.80;;;3.37;;
10013;SDS011;45684;48.358;10.746;2023-04-03T05:52:59;3.60;;;3.30;;
10013;SDS011;45684;48.358;10.746;2023-04-03T05:55:29;3.30;;;3.07;;
10013;SDS011;45684;48.358;10.746;2023-04-03T05:57:57;4.00;;;3.13;;
10013;SDS011;45684;48.358;10.746;2023-04-03T06:00:25;3.90;;;3.60;;
10013;SDS011;45684;48.358;10.746;2023-04-03T06:02:59;3.60;;;3.30;;
10013;SDS011;45684;48.358;10.746;2023-04-03T06:05:29;3.77;;;3.47;;
10013;SDS011;45684;48.358;10.746;2023-04-03T06:07:57;3.83;;;3.53;;
10013;SDS011;45684;48.358;10.746;2023-04-03T06:10:25;3.57;;;3.27;;
10013;SDS011;45684;48.358;10.746;2023-04-03T06:12:53;4.13;;;3.20;;
10013;SDS011;45684;48.358;10.746;2023-04-03T06:15:22;5.03;;;3.43;;
10013;SDS011;45684;48.358;10.746;2023-04-03T06:17:50;3.90;;;3.60;;
10013;SDS011;45684;48.358;10.746;2023-04-03T06:20:18;4.03;;;3.73;;
10013;SDS011;45684;48.358;10.746;2023-04-03T06:22:47;3.87;;;3.40;;
10013;SDS011;45684;48.358;10.746;2023-04-03T06:25:16;3.67;;;3.37;;
10013;SDS011;45684;48.358;10.746;2023-04-03T06:27:45;4.10;;;3.70;;
10013;SDS011;45684;48.358;10.746;2023-04-03T06:30:13;3.70;;;3.40;;
10013;SDS011;45684;48.358;10.746;2023-04-03T06:32:41;4.00;;;3.70;;
10013;SDS011;45684;48.358;10.746;2023-04-03T06:35:10;3.27;;;3.07;;
10013;SDS011;45684;48.358;10.746;2023-04-03T06:37:38;3.80;;;3.50;;
10013;SDS011;45684;48.358;10.746;2023-04-03T06:40:09;5.07;;;4.00;;
10013;SDS011;45684;48.358;10.746;2023-04-03T06:42:45;4.07;;;3.70;;
10013;SDS011;45684;48.358;10.746;2023-04-03T06:45:13;4.03;;;3.63;;
10013;SDS011;45684;48.358;10.746;2023-04-03T06:47:41;4.27;;;3.87;;
10013;SDS011;45684;48.358;10.746;2023-04-03T06:50:09;3.90;;;3.60;;
10013;SDS011;45684;48.358;10.746;2023-04-03T06:52:40;4.30;;;3.90;;
10013;SDS011;45684;48.358;10.746;2023-04-03T06:55:10;4.00;;;3.60;;
10013;SDS011;45684;48.358;10.746;2023-04-03T06:57:38;4.13;;;3.83;;
10013;SDS011;45684;48.358;10.746;2023-04-03T07:00:07;3.73;;;3.33;;
10013;SDS011;45684;48.358;10.746;2023-04-03T07:02:37;4.23;;;3.73;;
10013;SDS011;45684;48.358;10.746;2023-04-03T07:05:05;4.30;;;3.40;;
10013;SDS011;45684;48.358;10.746;2023-04-03T07:07:34;3.83;;;3.53;;
10013;SDS011;45684;48.358;10.746;2023-04-03T07:10:02;4.17;;;3.60;;
10013;SDS011;45684;48.358;10.746;2023-04-03T07:12:32;4.07;;;3.67;;
10013;SDS011;45684;48.358;10.746;2023-04-03T07:15:00;3.87;;;3.47;;
10013;SDS011;45684;48.358;10.746;2023-04-03T07:17:29;3.67;;;3.37;;
10013;SDS011;45684;48.358;10.746;2023-04-03T07:19:57;6.17;;;3.43;;
10013;SDS011;45684;48.358;10.746;2023-04-03T07:22:30;5.33;;;3.97;;
10013;SDS011;45684;48.358;10.746;2023-04-03T07:24:58;4.43;;;3.83;;
10013;SDS011;45684;48.358;10.746;2023-04-03T07:27:27;4.00;;;3.60;;
10013;SDS011;45684;48.358;10.746;2023-04-03T07:29:57;4.17;;;3.50;;
10013;SDS011;45684;48.358;10.746;2023-04-03T07:32:24;4.80;;;3.50;;
10013;SDS011;45684;48.358;10.746;2023-04-03T07:34:52;3.80;;;3.50;;
10013;SDS011;45684;48.358;10.746;2023-04-03T07:37:20;4.40;;;3.77;;
10013;SDS011;45684;48.358;10.746;2023-04-03T07:39:49;3.93;;;3.53;;
10013;SDS011;45684;48.358;10.746;2023-04-03T07:42:17;3.63;;;3.23;;
10013;SDS011;45684;48.358;10.746;2023-04-03T07:44:45;4.30;;;3.40;;
10013;SDS011;45684;48.358;10.746;2023-04-03T07:47:15;4.40;;;4.00;;
10013;SDS011;45684;48.358;10.746;2023-04-03T07:49:44;3.80;;;3.50;;
10013;SDS011;45684;48.358;10.746;2023-04-03T07:52:12;4.27;;;3.87;;
10013;SDS011;45684;48.358;10.746;2023-04-03T07:54:41;3.87;;;3.30;;
10013;SDS011;45684;48.358;10.746;2023-04-03T07:57:10;4.90;;;3.67;;
10013;SDS011;45684;48.358;10.746;2023-04-03T07:59:38;3.70;;;3.40;;
10013;SDS011;45684;48.358;10.746;2023-04-03T08:02:08;3.57;;;3.20;;
10013;SDS011;45684;48.358;10.746;2023-04-03T08:04:38;4.07;;;3.67;;
10013;SDS011;45684;48.358;10.746;2023-04-03T08:07:07;3.87;;;3.47;;
10013;SDS011;45684;48.358;10.746;2023-04-03T08:09:35;3.57;;;3.27;;
10013;SDS011;45684;48.358;10.746;2023-04-03T08:12:03;3.90;;;3.60;;
10013;SDS011;45684;48.358;10.746;2023-04-03T08:14:31;5.10;;;3.60;;
10013;SDS011;45684;48.358;10.746;2023-04-03T08:17:01;3.80;;;3.33;;
10013;SDS011;45684;48.358;10.746;2023-04-03T08:19:31;3.77;;;3.17;;
10013;SDS011;45684;48.358;10.746;2023-04-03T08:22:00;3.80;;;3.50;;
10013;SDS011;45684;48.358;10.746;2023-04-03T08:24:29;3.70;;;3.37;;
10013;SDS011;45684;48.358;10.746;2023-04-03T08:26:57;5.03;;;3.80;;
10013;SDS011;45684;48.358;10.746;2023-04-03T08:29:25;3.63;;;3.27;;
10013;SDS011;45684;48.358;10.746;2023-04-03T08:31:53;5.13;;;3.70;;
10013;SDS011;45684;48.358;10.746;2023-04-03T08:34:21;4.27;;;3.50;;
10013;SDS011;45684;48.358;10.746;2023-04-03T08:36:49;3.60;;;3.30;;
10013;SDS011;45684;48.358;10.746;2023-04-03T08:39:18;3.50;;;3.20;;
10013;SDS011;45684;48.358;10.746;2023-04-03T08:41:46;3.57;;;3.27;;
10013;SDS011;45684;48.358;10.746;2023-04-03T08:44:16;3.60;;;3.30;;
10013;SDS011;45684;48.358;10.746;2023-04-03T08:46:56;3.73;;;3.03;;
10013;SDS011;45684;48.358;10.746;2023-04-03T08:49:32;3.37;;;3.07;;
10013;SDS011;45684;48.358;10.746;2023-04-03T08:52:04;3.80;;;3.23;;
10013;SDS011;45684;48.358;10.746;2023-04-03T08:54:47;5.63;;;3.50;;
10013;SDS011;45684;48.358;10.746;2023-04-03T08:57:19;3.73;;;3.23;;
10013;SDS011;45684;48.358;10.746;2023-04-03T08:59:54;3.40;;;3.10;;
10013;SDS011;45684;48.358;10.746;2023-04-03T09:02:24;3.63;;;3.30;;
10013;SDS011;45684;48.358;10.746;2023-04-03T09:04:55;3.90;;;3.30;;
10013;SDS011;45684;48.358;10.746;2023-04-03T09:07:28;4.70;;;3.10;;
10013;SDS011;45684;48.358;10.746;2023-04-03T09:10:05;3.73;;;3.40;;
10013;SDS011;45684;48.358;10.746;2023-04-03T09:12:35;3.43;;;3.13;;
10013;SDS011;45684;48.358;10.746;2023-04-03T09:15:09;2.97;;;2.77;;
10013;SDS011;45684;48.358;10.746;2023-04-03T09:17:51;3.83;;;3.13;;
10013;SDS011;45684;48.358;10.746;2023-04-03T09:20:28;3.53;;;3.07;;
10013;SDS011;45684;48.358;10.746;2023-04-03T09:23:04;4.30;;;3.57;;
10013;SDS011;45684;48.358;10.746;2023-04-03T09:25:43;4.53;;;3.13;;
10013;SDS011;45684;48.358;10.746;2023-04-03T09:28:11;3.10;;;2.90;;
10013;SDS011;45684;48.358;10.746;2023-04-03T09:30:39;3.80;;;2.90;;
10013;SDS011;45684;48.358;10.746;2023-04-03T09:33:07;3.87;;;3.20;;
10013;SDS011;45684;48.358;10.746;2023-04-03T09:35:37;3.63;;;3.33;;
10013;SDS011;45684;48.358;10.746;2023-04-03T09:38:15;4.63;;;3.03;;
10013;SDS011;45684;48.358;10.746;2023-04-03T09:40:46;3.27;;;3.07;;
10013;SDS011;45684;48.358;10.746;2023-04-03T09:43:26;3.77;;;3.43;;
10013;SDS011;45684;48.358;10.746;2023-04-03T09:45:56;3.67;;;3.37;;
10013;SDS011;45684;48.358;10.746;2023-04-03T09:48:52;4.00;;;3.30;;
10013;SDS011;45684;48.358;10.746;2023-04-03T09:51:35;3.87;;;3.47;;
10013;SDS011;45684;48.358;10.746;2023-04-03T09:54:23;3.80;;;3.50;;
10013;SDS011;45684;48.358;10.746;2023-04-03T09:56:55;3.60;;;3.30;;
10013;SDS011;45684;48.358;10.746;2023-04-03T09:59:25;3.40;;;3.10;;
10013;SDS011;45684;48.358;10.746;2023-04-03T10:01:57;3.50;;;3.20;;
10013;SDS011;45684;48.358;10.746;2023-04-03T10:04:28;3.20;;;2.90;;
10013;SDS011;45684;48.358;10.746;2023-04-03T10:09:57;3.07;;;2.87;;
10013;SDS011;45684;48.358;10.746;2023-04-03T10:12:27;4.80;;;3.37;;
10013;SDS011;45684;48.358;10.746;2023-04-03T10:14:58;3.83;;;3.43;;
10013;SDS011;45684;48.358;10.746;2023-04-03T10:17:31;4.57;;;4.03;;
10013;SDS011;45684;48.358;10.746;2023-04-03T10:20:09;3.77;;;3.40;;
10013;SDS011;45684;48.358;10.746;2023-04-03T10:22:56;3.23;;;3.00;;
10013;SDS011;45684;48.358;10.746;2023-04-03T10:25:40;3.73;;;3.43;;
10013;SDS011;45684;48.358;10.746;2023-04-03T10:28:14;3.60;;;3.30;;
10013;SDS011;45684;48.358;10.746;2023-04-03T10:30:50;3.50;;;3.20;;
10013;SDS011;45684;48.358;10.746;2023-04-03T10:33:29;3.70;;;3.40;;
10013;SDS011;45684;48.358;10.746;2023-04-03T10:36:09;3.47;;;3.17;;
10013;SDS011;45684;48.358;10.746;2023-04-03T10:38:46;3.17;;;2.80;;
10013;SDS011;45684;48.358;10.746;2023-04-03T10:41:24;3.40;;;3.00;;
10013;SDS011;45684;48.358;10.746;2023-04-03T10:44:03;3.73;;;3.37;;
10013;SDS011;45684;48.358;10.746;2023-04-03T10:46:47;3.10;;;2.80;;
10013;SDS011;45684;48.358;10.746;2023-04-03T10:49:23;4.70;;;3.20;;
10013;SDS011;45684;48.358;10.746;2023-04-03T10:52:00;4.13;;;3.10;;
10013;SDS011;45684;48.358;10.746;2023-04-03T10:54:36;3.33;;;3.13;;
10013;SDS011;45684;48.358;10.746;2023-04-03T10:57:08;3.47;;;3.17;;
10013;SDS011;45684;48.358;10.746;2023-04-03T10:59:43;5.87;;;3.50;;
10013;SDS011;45684;48.358;10.746;2023-04-03T11:02:14;3.60;;;3.30;;
10013;SDS011;45684;48.358;10.746;2023-04-03T11:04:47;3.50;;;3.20;;
10013;SDS011;45684;48.358;10.746;2023-04-03T11:07:19;3.63;;;3.33;;
10013;SDS011;45684;48.358;10.746;2023-04-03T11:09:50;3.50;;;3.20;;
10013;SDS011;45684;48.358;10.746;2023-04-03T11:12:23;3.97;;;3.40;;
10013;SDS011;45684;48.358;10.746;2023-04-03T11:14:55;3.63;;;3.33;;
10013;SDS011;45684;48.358;10.746;2023-04-03T11:17:27;3.47;;;3.10;;
10013;SDS011;45684;48.358;10.746;2023-04-03T11:19:59;4.13;;;3.47;;
10013;SDS011;45684;48.358;10.746;2023-04-03T11:22:34;3.80;;;3.50;;
10013;SDS011;45684;48.358;10.746;2023-04-03T11:25:14;3.17;;;2.80;;
10013;SDS011;45684;48.358;10.746;2023-04-03T11:27:49;3.43;;;3.13;;
10013;SDS011;45684;48.358;10.746;2023-04-03T11:30:25;3.43;;;3.10;;
10013;SDS011;45684;48.358;10.746;2023-04-03T11:33:04;3.47;;;2.83;;
10013;SDS011;45684;48.358;10.746;2023-04-03T11:35:44;4.10;;;3.50;;
10013;SDS011;45684;48.358;10.746;2023-04-03T11:38:19;3.17;;;2.87;;
10013;SDS011;45684;48.358;10.746;2023-04-03T11:40:55;3.67;;;3.37;;
10013;SDS011;45684;48.358;10.746;2023-04-03T11:43:25;5.37;;;3.10;;
10013;SDS011;45684;48.358;10.746;2023-04-03T11:45:58;3.33;;;2.90;;
10013;SDS011;45684;48.358;10.746;2023-04-03T11:48:48;2.90;;;2.70;;
10013;SDS011;45684;48.358;10.746;2023-04-03T12:00:45;4.00;;;3.60;;
10013;SDS011;45684;48.358;10.746;2023-04-03T12:03:55;5.50;;;3.43;;
10013;SDS011;45684;48.358;10.746;2023-04-03T12:06:49;3.13;;;2.93;;
10013;SDS011;45684;48.358;10.746;2023-04-03T12:12:57;2.93;;;2.73;;
10013;SDS011;45684;48.358;10.746;2023-04-03T12:15:47;4.83;;;3.33;;
10013;SDS011;45684;48.358;10.746;2023-04-03T12:24:47;3.93;;;2.80;;
10013;SDS011;45684;48.358;10.746;2023-04-03T12:27:32;3.57;;;2.97;;
10013;SDS011;45684;48.358;10.746;2023-04-03T12:30:11;3.03;;;2.73;;
10013;SDS011;45684;48.358;10.746;2023-04-03T12:32:57;3.53;;;2.63;;
10013;SDS011;45684;48.358;10.746;2023-04-03T12:35:43;4.77;;;2.83;;
10013;SDS011;45684;48.358;10.746;2023-04-03T12:38:25;3.00;;;2.70;;
10013;SDS011;45684;48.358;10.746;2023-04-03T12:41:17;2.87;;;2.53;;
10013;SDS011;45684;48.358;10.746;2023-04-03T12:43:53;2.70;;;2.50;;
10013;SDS011;45684;48.358;10.746;2023-04-03T12:46:33;2.63;;;2.30;;
10013;SDS011;45684;48.358;10.746;2023-04-03T12:49:12;2.80;;;2.20;;
10013;SDS011;45684;48.358;10.746;2023-04-03T12:51:53;3.30;;;2.30;;
10013;SDS011;45684;48.358;10.746;2023-04-03T12:54:22;2.27;;;2.13;;
10013;SDS011;45684;48.358;10.746;2023-04-03T12:57:08;2.40;;;2.20;;
10013;SDS011;45684;48.358;10.746;2023-04-03T12:59:36;2.40;;;2.20;;
10013;SDS011;45684;48.358;10.746;2023-04-03T13:02:10;2.50;;;2.30;;
10013;SDS011;45684;48.358;10.746;2023-04-03T13:04:47;2.30;;;2.10;;
10013;SDS011;45684;48.358;10.746;2023-04-03T13:07:24;2.60;;;2.40;;
10013;SDS011;45684;48.358;10.746;2023-04-03T13:09:59;2.27;;;2.07;;
10013;SDS011;45684;48.358;10.746;2023-04-03T13:12:29;2.80;;;2.07;;
10013;SDS011;45684;48.358;10.746;2023-04-03T13:14:58;2.10;;;1.90;;
10013;SDS011;45684;48.358;10.746;2023-04-03T13:17:30;2.10;;;1.90;;
10013;SDS011;45684;48.358;10.746;2023-04-03T13:20:09;2.43;;;2.20;;
10013;SDS011;45684;48.358;10.746;2023-04-03T13:22:41;2.33;;;1.97;;
10013;SDS011;45684;48.358;10.746;2023-04-03T13:25:15;2.40;;;2.10;;
10013;SDS011;45684;48.358;10.746;2023-04-03T13:27:45;2.43;;;2.17;;
10013;SDS011;45684;48.358;10.746;2023-04-03T13:30:20;2.00;;;1.80;;
10013;SDS011;45684;48.358;10.746;2023-04-03T13:32:52;2.03;;;1.93;;
10013;SDS011;45684;48.358;10.746;2023-04-03T13:35:27;1.90;;;1.80;;
10013;SDS011;45684;48.358;10.746;2023-04-03T13:38:03;2.17;;;2.00;;
10013;SDS011;45684;48.358;10.746;2023-04-03T13:40:33;2.93;;;1.87;;
10013;SDS011;45684;48.358;10.746;2023-04-03T13:43:18;1.90;;;1.80;;
10013;SDS011;45684;48.358;10.746;2023-04-03T13:46:20;2.90;;;2.00;;
10013;SDS011;45684;48.358;10.746;2023-04-03T13:48:53;2.93;;;1.90;;
10013;SDS011;45684;48.358;10.746;2023-04-03T13:51:23;3.77;;;2.20;;
10013;SDS011;45684;48.358;10.746;2023-04-03T13:53:55;2.90;;;2.60;;
10013;SDS011;45684;48.358;10.746;2023-04-03T13:56:26;3.27;;;2.30;;
10013;SDS011;45684;48.358;10.746;2023-04-03T13:59:00;1.90;;;1.80;;
10013;SDS011;45684;48.358;10.746;2023-04-03T14:01:33;2.13;;;2.03;;
10013;SDS011;45684;48.358;10.746;2023-04-03T14:04:11;2.07;;;1.80;;
10013;SDS011;45684;48.358;10.746;2023-04-03T14:06:42;3.03;;;2.00;;
10013;SDS011;45684;48.358;10.746;2023-04-03T14:09:12;1.90;;;1.73;;
10013;SDS011;45684;48.358;10.746;2023-04-03T14:11:41;2.03;;;1.73;;
10013;SDS011;45684;48.358;10.746;2023-04-03T14:14:12;2.20;;;2.00;;
10013;SDS011;45684;48.358;10.746;2023-04-03T14:16:46;1.73;;;1.60;;
10013;SDS011;45684;48.358;10.746;2023-04-03T14:19:20;1.83;;;1.70;;
10013;SDS011;45684;48.358;10.746;2023-04-03T14:21:49;1.70;;;1.60;;
10013;SDS011;45684;48.358;10.746;2023-04-03T14:24:20;1.93;;;1.70;;
10013;SDS011;45684;48.358;10.746;2023-04-03T14:26:49;4.00;;;2.27;;
10013;SDS011;45684;48.358;10.746;2023-04-03T14:29:19;2.53;;;2.33;;
10013;SDS011;45684;48.358;10.746;2023-04-03T14:31:49;1.97;;;1.87;;
10013;SDS011;45684;48.358;10.746;2023-04-03T14:34:33;1.60;;;1.50;;
10013;SDS011;45684;48.358;10.746;2023-04-03T14:37:00;4.00;;;2.53;;
10013;SDS011;45684;48.358;10.746;2023-04-03T14:39:29;2.43;;;2.10;;
10013;SDS011;45684;48.358;10.746;2023-04-03T14:41:58;1.73;;;1.63;;
10013;SDS011;45684;48.358;10.746;2023-04-03T14:44:25;4.77;;;2.53;;
10013;SDS011;45684;48.358;10.746;2023-04-03T14:46:53;1.80;;;1.50;;
10013;SDS011;45684;48.358;10.746;2023-04-03T14:49:24;1.93;;;1.77;;
10013;SDS011;45684;48.358;10.746;2023-04-03T14:51:55;1.90;;;1.40;;
10013;SDS011;45684;48.358;10.746;2023-04-03T14:54:24;1.50;;;1.40;;
10013;SDS011;45684;48.358;10.746;2023-04-03T14:56:55;1.63;;;1.53;;
10013;SDS011;45684;48.358;10.746;2023-04-03T14:59:26;1.60;;;1.50;;
10013;SDS011;45684;48.358;10.746;2023-04-03T15:01:54;1.80;;;1.63;;
10013;SDS011;45684;48.358;10.746;2023-04-03T15:04:22;3.83;;;2.10;;
10013;SDS011;45684;48.358;10.746;2023-04-03T15:06:51;1.60;;;1.50;;
10013;SDS011;45684;48.358;10.746;2023-04-03T15:09:20;1.47;;;1.37;;
10013;SDS011;45684;48.358;10.746;2023-04-03T15:11:50;1.97;;;1.50;;
10013;SDS011;45684;48.358;10.746;2023-04-03T15:14:20;2.07;;;1.53;;
10013;SDS011;45684;48.358;10.746;2023-04-03T15:17:03;1.67;;;1.50;;
10013;SDS011;45684;48.358;10.746;2023-04-03T15:19:31;2.23;;;1.40;;
10013;SDS011;45684;48.358;10.746;2023-04-03T15:22:03;1.67;;;1.57;;
10013;SDS011;45684;48.358;10.746;2023-04-03T15:24:31;2.17;;;1.70;;